Terminal Aerodrome Forecast
Issued by NWS Rapid City, SD

Home | Current Version | Previous Version | Text Only | Print | Product List | Glossary On
Versions: 1 2 3 4 5 6 7 8 9 10 11 12 13 14 15
000
FTUS43 KUNR 262320
TAFRAP
TAF
KRAP 262320Z 2700/2724 VRB04KT P6SM SCT045
     FM271100 18004KT P6SM FEW008 SCT200
     FM271700 15008KT P6SM SCT200=

USA.gov is the U.S. government's official web portal to all federal, state and local government web resources and services.